createdAt,value
2019-06-27T00:00:41.061Z,63.31
2019-06-27T00:03:09.517Z,63.49
2019-06-27T00:05:37.972Z,63.41
2019-06-27T00:08:06.400Z,63.41
2019-06-27T00:10:34.889Z,63.96
2019-06-27T00:13:03.566Z,65.07
2019-06-27T00:15:32.027Z,64.85
2019-06-27T00:18:00.482Z,64.83
2019-06-27T00:20:28.924Z,65.04
2019-06-27T00:22:57.370Z,65.53
2019-06-27T00:25:25.825Z,66.27
2019-06-27T00:27:54.268Z,66.46
2019-06-27T00:30:22.724Z,66.91
2019-06-27T00:32:51.198Z,67.45
2019-06-27T00:35:19.673Z,67.79
2019-06-27T00:37:48.128Z,67.25
2019-06-27T00:40:16.616Z,66.91
2019-06-27T00:42:45.158Z,65.70
2019-06-27T00:45:14.169Z,65.71
2019-06-27T00:47:42.608Z,66.21
2019-06-27T00:50:11.621Z,67.06
2019-06-27T00:52:40.099Z,66.55
2019-06-27T00:55:08.942Z,67.11
2019-06-27T00:57:37.426Z,67.24
2019-06-27T01:00:09.426Z,66.57
2019-06-27T01:02:37.916Z,67.33
2019-06-27T01:05:07.713Z,67.70
2019-06-27T01:07:36.224Z,67.60
2019-06-27T01:10:07.029Z,67.80
2019-06-27T01:12:35.636Z,68.45
2019-06-27T01:15:05.645Z,67.93
2019-06-27T01:17:34.084Z,67.76
2019-06-27T01:20:02.553Z,67.98
2019-06-27T01:22:31.085Z,68.71
2019-06-27T01:24:59.543Z,69.13
2019-06-27T01:27:30.252Z,68.35
2019-06-27T01:29:58.197Z,68.91
2019-06-27T01:32:26.639Z,68.80
2019-06-27T01:34:55.088Z,68.76
2019-06-27T01:37:23.522Z,69.15
2019-06-27T01:39:52.006Z,69.11
2019-06-27T01:42:20.493Z,68.99
2019-06-27T01:44:53.355Z,68.99
2019-06-27T01:47:21.811Z,68.58
2019-06-27T01:49:50.281Z,68.30
2019-06-27T01:52:18.728Z,68.24
2019-06-27T01:54:47.204Z,68.29
2019-06-27T01:57:15.650Z,68.80
2019-06-27T01:59:44.090Z,69.14
2019-06-27T02:02:12.554Z,68.99
2019-06-27T02:04:41.022Z,69.38
2019-06-27T02:07:09.468Z,69.35
2019-06-27T02:09:38.015Z,68.94
2019-06-27T02:12:06.473Z,68.66
2019-06-27T02:14:34.923Z,68.49
2019-06-27T02:17:03.389Z,67.64
2019-06-27T02:19:31.831Z,67.94
2019-06-27T02:22:00.305Z,67.27
2019-06-27T02:24:28.774Z,66.66
2019-06-27T02:26:57.236Z,66.29
2019-06-27T02:29:25.660Z,66.70
2019-06-27T02:31:54.147Z,67.54
2019-06-27T02:34:22.567Z,67.04
2019-06-27T02:36:51.028Z,67.03
2019-06-27T02:39:19.482Z,66.91
2019-06-27T02:41:47.953Z,66.75
2019-06-27T02:44:16.401Z,66.51
2019-06-27T02:46:44.845Z,67.09
2019-06-27T02:49:13.341Z,67.12
2019-06-27T02:51:41.823Z,67.07
2019-06-27T02:54:10.285Z,66.32
2019-06-27T02:56:38.767Z,67.16
2019-06-27T02:59:07.214Z,67.70
2019-06-27T03:01:35.677Z,68.53
2019-06-27T03:04:04.141Z,68.38
2019-06-27T03:06:32.625Z,67.09
2019-06-27T03:09:01.081Z,66.04
2019-06-27T03:11:29.515Z,65.90
2019-06-27T03:13:57.951Z,66.92
2019-06-27T03:16:26.400Z,66.40
2019-06-27T03:18:54.831Z,67.26
2019-06-27T03:21:23.267Z,67.54
2019-06-27T03:23:51.775Z,67.90
2019-06-27T03:26:20.207Z,67.84
2019-06-27T03:28:52.616Z,67.95
2019-06-27T03:31:18.857Z,67.72
2019-06-27T03:33:47.269Z,67.83
2019-06-27T03:36:16.065Z,67.83
2019-06-27T03:38:44.558Z,66.90
2019-06-27T03:41:12.994Z,66.50
2019-06-27T03:43:41.466Z,66.04
2019-06-27T03:46:09.909Z,65.99
2019-06-27T03:48:38.510Z,66.58
2019-06-27T03:51:06.967Z,66.62
2019-06-27T03:53:35.411Z,66.79
2019-06-27T03:56:03.891Z,66.61
2019-06-27T03:58:32.374Z,66.30
2019-06-27T04:01:00.787Z,65.88
2019-06-27T04:03:29.223Z,65.97
2019-06-27T04:05:57.690Z,65.76
2019-06-27T04:08:26.130Z,65.21
2019-06-27T04:10:54.666Z,65.36
2019-06-27T04:13:23.125Z,65.83
2019-06-27T04:15:51.591Z,66.65
2019-06-27T04:18:20.031Z,66.84
2019-06-27T04:20:48.494Z,66.58
2019-06-27T04:23:16.948Z,66.88
2019-06-27T04:25:45.421Z,66.78
2019-06-27T04:28:13.894Z,67.29
2019-06-27T04:30:42.712Z,67.95
2019-06-27T04:33:11.147Z,67.67
2019-06-27T04:35:39.606Z,66.93
2019-06-27T04:38:08.061Z,66.57
2019-06-27T04:40:36.534Z,65.79
2019-06-27T04:43:06.245Z,65.61
2019-06-27T04:45:34.857Z,66.42
2019-06-27T04:48:03.343Z,67.24
2019-06-27T04:50:31.777Z,66.94
2019-06-27T04:53:00.227Z,66.72
2019-06-27T04:55:28.687Z,66.64
2019-06-27T04:57:57.147Z,66.35
2019-06-27T05:00:31.665Z,67.42
2019-06-27T05:03:00.119Z,68.00
2019-06-27T05:05:28.582Z,67.32
2019-06-27T05:07:57.042Z,67.13
2019-06-27T05:10:25.525Z,67.07
2019-06-27T05:12:53.960Z,65.94
2019-06-27T05:15:22.435Z,64.27
2019-06-27T05:17:50.884Z,64.04
2019-06-27T05:20:19.346Z,65.31
2019-06-27T05:22:47.855Z,65.45
2019-06-27T05:25:16.309Z,65.93
2019-06-27T05:27:44.780Z,65.32
2019-06-27T05:30:13.243Z,64.19
2019-06-27T05:32:41.727Z,63.59
2019-06-27T05:35:10.349Z,61.64
2019-06-27T05:37:38.786Z,60.06
2019-06-27T05:40:08.192Z,59.97
2019-06-27T05:42:36.668Z,61.28
2019-06-27T05:45:08.246Z,60.38
2019-06-27T05:47:37.010Z,60.21
2019-06-27T05:50:07.022Z,60.13
2019-06-27T05:52:35.466Z,59.97
2019-06-27T05:55:04.954Z,59.67
2019-06-27T05:57:33.436Z,58.73
2019-06-27T06:00:02.023Z,57.96
2019-06-27T06:02:30.554Z,57.59
2019-06-27T06:04:59.014Z,57.23
2019-06-27T06:07:27.485Z,59.65
2019-06-27T06:09:55.981Z,60.73
2019-06-27T06:12:24.458Z,60.93
2019-06-27T06:14:52.921Z,59.74
2019-06-27T06:17:21.345Z,58.63
2019-06-27T06:19:49.921Z,59.70
2019-06-27T06:22:18.362Z,58.99
2019-06-27T06:24:46.783Z,57.72
2019-06-27T06:27:15.261Z,57.52
2019-06-27T06:29:43.711Z,57.28
2019-06-27T06:32:12.180Z,58.13
2019-06-27T06:34:40.663Z,58.31
2019-06-27T06:37:09.109Z,57.59
2019-06-27T06:39:37.561Z,56.82
2019-06-27T06:42:06.024Z,58.21
2019-06-27T06:44:34.486Z,57.61
2019-06-27T06:47:02.938Z,59.16
2019-06-27T06:49:31.390Z,59.66
2019-06-27T06:51:59.845Z,59.30
2019-06-27T06:54:28.447Z,57.65
2019-06-27T06:56:56.826Z,59.19
2019-06-27T06:59:25.304Z,57.77
2019-06-27T07:01:53.762Z,57.58
2019-06-27T07:04:22.207Z,57.06
2019-06-27T07:06:50.691Z,57.51
2019-06-27T07:09:19.151Z,55.60
2019-06-27T07:11:47.606Z,54.31
2019-06-27T07:14:16.072Z,55.08
2019-06-27T07:16:44.529Z,56.06
2019-06-27T07:19:12.999Z,56.08
2019-06-27T07:21:41.462Z,56.40
2019-06-27T07:24:09.906Z,56.16
2019-06-27T07:26:38.387Z,55.20
2019-06-27T07:29:06.863Z,54.11
2019-06-27T07:31:35.333Z,52.79
2019-06-27T07:34:03.793Z,51.45
2019-06-27T07:36:32.251Z,51.35
2019-06-27T07:39:00.695Z,52.55
2019-06-27T07:41:29.157Z,51.46
2019-06-27T07:43:57.632Z,52.08
2019-06-27T07:46:26.214Z,52.77
2019-06-27T07:48:54.702Z,52.13
2019-06-27T07:51:23.162Z,51.32
2019-06-27T07:53:51.618Z,52.44
2019-06-27T07:56:20.121Z,53.72
2019-06-27T07:58:48.554Z,54.01
2019-06-27T08:08:50.688Z,51.72
2019-06-27T08:11:19.106Z,50.43
2019-06-27T08:13:47.573Z,51.64
2019-06-27T08:16:16.051Z,51.52
2019-06-27T08:18:44.511Z,48.73
2019-06-27T08:21:12.970Z,49.94
2019-06-27T08:23:42.203Z,49.42
2019-06-27T08:26:10.818Z,49.31
2019-06-27T08:28:39.309Z,50.07
2019-06-27T08:31:07.759Z,50.01
2019-06-27T08:33:36.299Z,50.32
2019-06-27T08:36:04.735Z,49.43
2019-06-27T08:38:33.216Z,49.00
2019-06-27T08:41:01.699Z,48.23
2019-06-27T08:43:30.210Z,48.86
2019-06-27T08:45:58.677Z,48.84
2019-06-27T08:48:27.144Z,49.90
2019-06-27T08:50:55.674Z,50.05
2019-06-27T08:53:24.152Z,49.60
2019-06-27T08:55:52.856Z,48.96
2019-06-27T08:58:21.369Z,48.29
2019-06-27T09:00:49.848Z,47.35
2019-06-27T09:03:18.323Z,47.55
2019-06-27T09:05:46.820Z,44.90
2019-06-27T09:08:15.355Z,45.99
2019-06-27T09:10:44.032Z,45.20
2019-06-27T09:13:12.567Z,44.72
2019-06-27T09:15:41.014Z,44.37
2019-06-27T09:18:09.487Z,44.51
2019-06-27T09:20:37.940Z,46.25
2019-06-27T09:23:06.411Z,46.32
2019-06-27T09:25:34.892Z,45.84
2019-06-27T09:28:03.399Z,45.44
2019-06-27T09:30:31.889Z,44.77
2019-06-27T09:33:00.352Z,43.51
2019-06-27T09:35:28.792Z,44.08
2019-06-27T09:37:57.351Z,45.31
2019-06-27T09:40:25.972Z,45.27
2019-06-27T09:42:54.468Z,45.27
2019-06-27T09:45:23.127Z,44.59
2019-06-27T09:47:51.551Z,44.89
2019-06-27T09:50:21.827Z,45.15
2019-06-27T09:52:50.294Z,45.39
2019-06-27T09:55:19.014Z,44.25
2019-06-27T09:57:47.524Z,43.25
2019-06-27T10:00:17.777Z,42.18
2019-06-27T10:02:46.272Z,42.00
2019-06-27T10:05:16.454Z,42.29
2019-06-27T10:07:44.926Z,43.22
2019-06-27T10:10:14.628Z,42.21
2019-06-27T10:12:43.440Z,42.30
2019-06-27T10:15:12.256Z,42.34
2019-06-27T10:17:40.711Z,41.62
2019-06-27T10:20:10.137Z,41.79
2019-06-27T10:22:38.597Z,42.83
2019-06-27T10:25:07.875Z,42.99
2019-06-27T10:27:36.381Z,44.29
2019-06-27T10:30:06.912Z,43.55
2019-06-27T10:32:35.405Z,42.88
2019-06-27T10:35:04.709Z,43.16
2019-06-27T10:37:33.194Z,42.98
2019-06-27T10:40:01.735Z,42.88
2019-06-27T10:42:30.196Z,42.28
2019-06-27T10:44:58.634Z,42.56
2019-06-27T10:47:27.087Z,43.12
2019-06-27T10:49:55.532Z,43.52
2019-06-27T10:52:24.019Z,43.27
2019-06-27T10:54:52.491Z,43.18
2019-06-27T10:57:20.936Z,42.72
2019-06-27T10:59:49.406Z,42.36
2019-06-27T11:02:17.835Z,42.08
2019-06-27T11:04:46.313Z,41.29
2019-06-27T11:07:14.838Z,40.78
2019-06-27T11:09:43.270Z,40.78
2019-06-27T11:12:11.743Z,41.17
2019-06-27T11:14:40.175Z,40.42
2019-06-27T11:17:08.621Z,40.84
2019-06-27T11:19:51.532Z,40.94
2019-06-27T11:22:07.289Z,39.83
2019-06-27T11:24:35.735Z,38.49
2019-06-27T11:27:04.256Z,38.86
2019-06-27T11:29:32.765Z,39.04
2019-06-27T11:32:01.212Z,39.58
2019-06-27T11:34:29.692Z,39.59
2019-06-27T11:36:58.145Z,39.97
2019-06-27T11:39:26.669Z,40.30
2019-06-27T11:41:55.112Z,40.67
2019-06-27T11:44:23.563Z,40.33
2019-06-27T11:46:52.068Z,40.78
2019-06-27T11:49:20.531Z,41.06
2019-06-27T11:51:49.189Z,40.70
2019-06-27T11:54:17.630Z,40.69
2019-06-27T11:56:46.211Z,40.45
2019-06-27T11:59:14.673Z,40.89
2019-06-27T12:01:46.071Z,40.56
2019-06-27T12:04:14.496Z,40.50
2019-06-27T12:06:42.966Z,40.40
2019-06-27T12:09:11.466Z,40.33
2019-06-27T12:11:42.301Z,40.41
2019-06-27T12:14:10.754Z,40.48
2019-06-27T12:16:39.202Z,40.57
2019-06-27T12:19:07.645Z,40.59
2019-06-27T12:21:36.125Z,39.27
2019-06-27T12:24:04.556Z,38.99
2019-06-27T12:26:33.010Z,38.85
2019-06-27T12:29:01.472Z,39.10
2019-06-27T12:31:29.926Z,38.76
2019-06-27T12:34:07.017Z,37.94
2019-06-27T12:36:28.562Z,37.19
2019-06-27T12:38:57.010Z,37.06
2019-06-27T12:41:25.450Z,37.14
2019-06-27T12:43:53.952Z,36.81
2019-06-27T12:46:23.369Z,35.83
2019-06-27T12:48:51.807Z,36.47
2019-06-27T12:51:20.454Z,36.76
2019-06-27T12:53:48.902Z,37.50
2019-06-27T12:56:17.334Z,37.58
2019-06-27T12:58:45.812Z,37.56
2019-06-27T13:01:14.319Z,37.43
2019-06-27T13:03:42.810Z,38.02
2019-06-27T13:06:11.328Z,37.19
2019-06-27T13:08:39.741Z,37.25
2019-06-27T13:11:08.192Z,37.08
2019-06-27T13:13:36.677Z,36.97
2019-06-27T13:16:05.161Z,36.09
2019-06-27T13:18:33.628Z,36.21
2019-06-27T13:21:02.164Z,35.84
2019-06-27T13:23:30.634Z,35.79
2019-06-27T13:25:59.187Z,35.86
2019-06-27T13:28:27.623Z,35.93
2019-06-27T13:30:56.085Z,35.86
2019-06-27T13:33:24.524Z,35.83
2019-06-27T13:35:53.091Z,35.74
2019-06-27T13:38:21.535Z,35.11
2019-06-27T13:40:49.977Z,34.90
2019-06-27T13:43:18.451Z,35.47
2019-06-27T13:45:46.895Z,35.57
2019-06-27T13:48:15.353Z,35.10
2019-06-27T13:50:43.877Z,35.26
2019-06-27T13:53:12.332Z,35.58
2019-06-27T13:55:40.805Z,35.94
2019-06-27T13:58:09.321Z,35.93
2019-06-27T14:00:43.090Z,35.56
2019-06-27T14:03:11.543Z,35.53
2019-06-27T14:05:40.008Z,35.01
2019-06-27T14:08:08.850Z,34.96
2019-06-27T14:10:37.584Z,35.11
2019-06-27T14:13:06.116Z,34.29
2019-06-27T14:15:34.686Z,35.00
2019-06-27T14:18:03.162Z,34.57
2019-06-27T14:20:31.617Z,34.19
2019-06-27T14:23:00.089Z,33.46
2019-06-27T14:25:28.583Z,34.23
2019-06-27T14:27:57.060Z,33.26
2019-06-27T14:30:26.077Z,33.07
2019-06-27T14:32:54.521Z,33.54
2019-06-27T14:35:23.300Z,33.61
2019-06-27T14:37:51.790Z,33.86
2019-06-27T14:40:20.969Z,33.84
2019-06-27T14:42:49.360Z,33.68
2019-06-27T14:45:18.093Z,33.48
2019-06-27T14:47:46.533Z,33.70
2019-06-27T14:50:14.991Z,33.92
2019-06-27T14:52:43.435Z,33.75
2019-06-27T14:55:12.518Z,34.10
2019-06-27T14:57:41.049Z,34.19
2019-06-27T15:00:10.116Z,34.00
2019-06-27T15:02:38.844Z,33.80
2019-06-27T15:05:08.021Z,33.65
2019-06-27T15:07:36.481Z,33.34
2019-06-27T15:10:06.790Z,32.90
2019-06-27T15:12:35.959Z,33.06
2019-06-27T15:15:06.363Z,33.44
2019-06-27T15:17:34.820Z,33.65
2019-06-27T15:20:04.454Z,33.54
2019-06-27T15:22:32.953Z,33.64
2019-06-27T15:25:01.465Z,33.26
2019-06-27T15:27:29.912Z,32.81
2019-06-27T15:29:58.416Z,32.08
2019-06-27T15:32:26.853Z,32.55
2019-06-27T15:34:55.323Z,32.14
2019-06-27T15:37:23.847Z,31.69
2019-06-27T15:39:52.303Z,31.55
2019-06-27T15:42:20.761Z,30.91
2019-06-27T15:44:50.779Z,31.49
2019-06-27T15:47:19.301Z,31.24
2019-06-27T15:49:47.760Z,31.27
2019-06-27T15:52:16.216Z,31.14
2019-06-27T15:54:44.677Z,30.81
2019-06-27T15:57:13.151Z,30.65
2019-06-27T15:59:41.603Z,30.44
2019-06-27T16:02:10.058Z,30.60
2019-06-27T16:04:38.502Z,30.53
2019-06-27T16:07:07.203Z,30.41
2019-06-27T16:09:35.712Z,30.37
2019-06-27T16:12:04.179Z,29.10
2019-06-27T16:14:32.598Z,29.71
2019-06-27T16:17:01.054Z,29.75
2019-06-27T16:19:29.551Z,30.36
2019-06-27T16:21:58.003Z,29.81
2019-06-27T16:24:26.441Z,29.95
2019-06-27T16:26:54.918Z,29.40
2019-06-27T16:29:23.374Z,30.23
2019-06-27T16:31:51.846Z,29.47
2019-06-27T16:34:20.299Z,29.55
2019-06-27T16:36:48.771Z,30.58
2019-06-27T16:39:17.208Z,30.68
2019-06-27T16:41:45.680Z,31.49
2019-06-27T16:44:14.119Z,30.81
2019-06-27T16:46:42.582Z,30.27
2019-06-27T16:49:11.041Z,30.85
2019-06-27T16:51:39.505Z,31.05
2019-06-27T16:54:07.993Z,30.24
2019-06-27T16:56:36.458Z,29.72
2019-06-27T16:59:04.983Z,29.87
2019-06-27T17:01:33.442Z,29.48
2019-06-27T17:04:01.901Z,29.37
2019-06-27T17:06:41.344Z,29.32
2019-06-27T17:09:00.595Z,29.31
2019-06-27T17:11:29.294Z,30.81
2019-06-27T17:13:57.759Z,32.63
2019-06-27T17:16:26.189Z,34.16
2019-06-27T17:18:54.648Z,35.15
2019-06-27T17:21:23.136Z,35.31
2019-06-27T17:23:51.635Z,35.85
2019-06-27T17:26:20.083Z,36.61
2019-06-27T17:28:48.533Z,36.98
2019-06-27T17:31:17.013Z,37.24
2019-06-27T17:33:45.466Z,37.24
2019-06-27T17:36:13.933Z,37.56
2019-06-27T17:38:42.407Z,37.96
2019-06-27T17:41:10.874Z,38.34
2019-06-27T17:43:41.448Z,38.30
2019-06-27T17:46:09.880Z,38.77
2019-06-27T17:48:38.327Z,39.01
2019-06-27T17:51:07.941Z,38.82
2019-06-27T17:53:36.739Z,38.62
2019-06-27T17:56:05.243Z,38.55
2019-06-27T17:58:33.703Z,38.66
2019-06-27T18:01:02.244Z,38.67
2019-06-27T18:03:30.767Z,38.33
2019-06-27T18:05:59.196Z,38.78
2019-06-27T18:08:27.676Z,39.07
2019-06-27T18:10:56.135Z,38.97
2019-06-27T18:13:24.625Z,38.77
2019-06-27T18:15:53.091Z,38.49
2019-06-27T18:18:21.587Z,38.57
2019-06-27T18:20:50.065Z,38.75
2019-06-27T18:23:18.573Z,38.87
2019-06-27T18:25:47.041Z,39.09
2019-06-27T18:28:15.504Z,39.17
2019-06-27T18:30:43.987Z,39.57
2019-06-27T18:33:12.440Z,40.33
2019-06-27T18:35:40.925Z,40.45
2019-06-27T18:38:09.406Z,40.85
2019-06-27T18:40:37.853Z,41.02
2019-06-27T18:43:06.308Z,41.59
2019-06-27T18:45:34.779Z,41.41
2019-06-27T18:48:03.228Z,41.38
2019-06-27T18:50:31.881Z,42.26
2019-06-27T18:53:00.370Z,43.26
2019-06-27T18:55:28.810Z,44.26
2019-06-27T18:57:57.424Z,45.00
2019-06-27T19:00:25.937Z,45.50
2019-06-27T19:02:54.411Z,46.13
2019-06-27T19:05:22.899Z,46.50
2019-06-27T19:07:51.415Z,46.50
2019-06-27T19:10:20.214Z,46.25
2019-06-27T19:12:48.666Z,46.81
2019-06-27T19:15:17.467Z,46.96
2019-06-27T19:17:46.000Z,47.20
2019-06-27T19:20:25.398Z,47.50
2019-06-27T19:22:55.553Z,48.10
2019-06-27T19:25:25.590Z,48.44
2019-06-27T19:27:54.042Z,48.92
2019-06-27T19:30:22.503Z,49.08
2019-06-27T19:32:50.946Z,49.06
2019-06-27T19:35:19.416Z,49.16
2019-06-27T19:38:00.886Z,49.47
2019-06-27T19:40:18.578Z,49.49
2019-06-27T19:42:47.042Z,49.71
2019-06-27T19:45:15.626Z,49.75
2019-06-27T19:47:44.118Z,49.68
2019-06-27T19:50:13.136Z,49.84
2019-06-27T19:52:41.587Z,50.22
2019-06-27T19:55:10.394Z,50.37
2019-06-27T19:57:38.890Z,50.41
2019-06-27T20:00:07.958Z,50.35
2019-06-27T20:02:36.423Z,50.68
2019-06-27T20:05:06.015Z,51.06
2019-06-27T20:07:34.490Z,50.97
2019-06-27T20:10:03.183Z,51.33
2019-06-27T20:12:31.631Z,51.05
2019-06-27T20:15:00.145Z,51.28
2019-06-27T20:17:28.577Z,51.75
2019-06-27T20:19:57.033Z,52.07
2019-06-27T20:22:25.521Z,52.02
2019-06-27T20:24:54.351Z,52.65
2019-06-27T20:27:22.793Z,52.29
2019-06-27T20:29:51.403Z,53.00
2019-06-27T20:32:20.159Z,52.79
2019-06-27T20:34:48.595Z,53.08
2019-06-27T20:37:17.099Z,53.23
2019-06-27T20:39:45.545Z,53.62
2019-06-27T20:42:13.999Z,53.87
2019-06-27T20:44:42.482Z,54.05
2019-06-27T20:47:10.961Z,54.13
2019-06-27T20:49:39.421Z,53.99
2019-06-27T20:52:07.949Z,54.59
2019-06-27T20:54:36.402Z,54.75
2019-06-27T20:57:04.937Z,55.02
2019-06-27T20:59:33.414Z,55.13
2019-06-27T21:02:01.871Z,55.25
2019-06-27T21:04:30.317Z,55.14
2019-06-27T21:06:58.839Z,55.62
2019-06-27T21:09:27.311Z,55.60
2019-06-27T21:11:55.799Z,55.36
2019-06-27T21:14:24.331Z,55.31
2019-06-27T21:16:52.818Z,55.51
2019-06-27T21:19:21.253Z,55.32
2019-06-27T21:21:50.204Z,55.10
2019-06-27T21:24:18.676Z,55.32
2019-06-27T21:26:47.133Z,55.37
2019-06-27T21:29:17.152Z,55.54
2019-06-27T21:31:45.791Z,55.92
2019-06-27T21:34:14.401Z,56.00
2019-06-27T21:36:42.867Z,56.01
2019-06-27T21:39:11.335Z,56.16
2019-06-27T21:41:39.791Z,56.27
2019-06-27T21:44:08.215Z,56.28
2019-06-27T21:46:36.653Z,56.74
2019-06-27T21:49:05.282Z,57.06
2019-06-27T21:51:33.713Z,57.18
2019-06-27T21:54:02.195Z,57.58
2019-06-27T21:56:30.662Z,57.81
2019-06-27T21:58:59.066Z,58.25
2019-06-27T22:01:27.655Z,57.87
2019-06-27T22:03:56.104Z,57.93
2019-06-27T22:06:24.581Z,57.82
2019-06-27T22:08:53.067Z,57.53
2019-06-27T22:11:21.501Z,58.00
2019-06-27T22:13:49.996Z,57.75
2019-06-27T22:16:18.435Z,57.82
2019-06-27T22:18:46.932Z,58.03
2019-06-27T22:21:15.377Z,58.31
2019-06-27T22:23:43.997Z,58.10
2019-06-27T22:26:12.467Z,58.35
2019-06-27T22:28:40.890Z,58.51
2019-06-27T22:31:09.351Z,58.71
2019-06-27T22:33:37.823Z,58.76
2019-06-27T22:36:06.297Z,58.97
2019-06-27T22:38:52.613Z,58.99
2019-06-27T22:41:38.867Z,59.29
2019-06-27T22:44:25.315Z,59.51
2019-06-27T22:47:11.499Z,59.68
2019-06-27T22:49:39.445Z,59.86
2019-06-27T22:52:15.628Z,60.01
2019-06-27T22:54:45.721Z,59.96
2019-06-27T22:57:14.161Z,60.21
2019-06-27T22:59:42.645Z,60.45
2019-06-27T23:02:11.080Z,60.54
2019-06-27T23:04:39.523Z,60.73
2019-06-27T23:07:07.983Z,61.15
2019-06-27T23:09:36.422Z,61.25
2019-06-27T23:12:04.872Z,61.52
2019-06-27T23:14:33.329Z,61.21
2019-06-27T23:17:01.772Z,61.61
2019-06-27T23:19:30.241Z,62.14
2019-06-27T23:21:58.673Z,61.96
2019-06-27T23:24:27.165Z,61.84
2019-06-27T23:26:55.634Z,61.95
2019-06-27T23:29:24.137Z,62.27
2019-06-27T23:31:52.575Z,61.73
2019-06-27T23:34:21.066Z,61.93
2019-06-27T23:36:49.500Z,61.79
2019-06-27T23:39:18.394Z,61.90
2019-06-27T23:41:46.871Z,61.81
2019-06-27T23:44:16.073Z,62.19
2019-06-27T23:46:44.603Z,62.37
2019-06-27T23:49:13.069Z,62.48
2019-06-27T23:51:41.981Z,62.18
2019-06-27T23:54:10.493Z,62.35
2019-06-27T23:56:38.936Z,62.70
2019-06-27T23:59:07.403Z,63.21
